Time;durP1;ratioP1;P1;durP2;ratioP2;P2;SDS_P1;SDS_P2;PMS_P1;PMS_P2;Temp;Humidity;BMP_temperature;BMP_pressure;BME280_temperature;BME280_humidity;BME280_pressure;Samples;Min_cycle;Max_cycle;Signal;HPM_P1;HPM_P2
2021/01/30 10:16:27;;;;;;;8.50;4.57;;;2.10;99.90;;;;;;2470961;22;20222;-72
2021/01/30 10:19:00;;;;;;;10.43;5.03;;;2.00;99.90;;;;;;5016732;28;20301;-68
2021/01/30 10:21:31;;;;;;;12.10;5.60;;;2.00;99.90;;;;;;5013080;28;20293;-68
2021/01/30 10:24:08;;;;;;;8.33;4.80;;;2.00;99.90;;;;;;5012710;28;20225;-68
2021/01/30 10:26:35;;;;;;;9.57;4.77;;;1.90;99.90;;;;;;5013739;28;20759;-70
2021/01/30 10:29:05;;;;;;;13.17;6.37;;;1.90;99.90;;;;;;5013147;28;20678;-70
2021/01/30 10:31:37;;;;;;;14.70;6.73;;;2.00;99.90;;;;;;5012808;28;20201;-70
2021/01/30 10:34:09;;;;;;;16.20;6.53;;;2.00;99.90;;;;;;5013190;28;20230;-69
2021/01/30 10:36:38;;;;;;;9.83;5.57;;;1.90;99.90;;;;;;5013289;28;20249;-70
2021/01/30 10:39:06;;;;;;;13.03;6.10;;;2.00;99.90;;;;;;5013490;28;20209;-70
2021/01/30 10:41:34;;;;;;;11.47;5.37;;;1.90;99.90;;;;;;5013043;28;20216;-69
2021/01/30 10:44:03;;;;;;;14.53;6.90;;;1.90;99.90;;;;;;5013291;28;20317;-69
2021/01/30 10:46:40;;;;;;;12.03;6.90;;;1.90;99.90;;;;;;5026469;28;20291;-68
2021/01/30 10:49:11;;;;;;;14.13;6.83;;;2.00;99.90;;;;;;5033145;28;20215;-69
2021/01/30 10:51:38;;;;;;;13.13;6.60;;;1.90;99.90;;;;;;5033211;28;20303;-69
2021/01/30 10:54:26;;;;;;;18.03;8.13;;;2.00;99.90;;;;;;5032969;28;20370;-71
2021/01/30 10:57:12;;;;;;;18.23;7.90;;;2.00;99.90;;;;;;5032805;28;20382;-70
2021/01/30 10:59:48;;;;;;;14.33;7.47;;;2.00;99.90;;;;;;5033007;28;20730;-70
2021/01/30 11:02:39;;;;;;;15.90;8.13;;;2.00;99.90;;;;;;5017051;28;20205;-70
2021/01/30 11:05:29;;;;;;;9.17;5.77;;;2.00;99.90;;;;;;5024204;28;20220;-70
2021/01/30 11:07:59;;;;;;;16.57;8.13;;;1.90;99.90;;;;;;5027196;28;20205;-69
2021/01/30 11:10:31;;;;;;;16.70;8.10;;;1.90;99.90;;;;;;5032842;28;20290;-69
2021/01/30 11:13:12;;;;;;;17.53;8.27;;;2.00;99.90;;;;;;5028901;28;20327;-70
2021/01/30 11:15:42;;;;;;;20.03;9.87;;;2.00;99.90;;;;;;5008260;28;20596;-67
2021/01/30 11:18:17;;;;;;;19.37;8.03;;;2.10;99.90;;;;;;5010511;28;20213;-67
2021/01/30 11:20:46;;;;;;;19.50;9.10;;;2.00;99.90;;;;;;5009534;28;20296;-67
2021/01/30 11:23:33;;;;;;;18.47;8.77;;;2.20;99.90;;;;;;5014283;28;20255;-67
2021/01/30 11:26:14;;;;;;;17.60;7.97;;;2.10;99.90;;;;;;5011134;28;20309;-68
2021/01/30 11:28:41;;;;;;;18.17;7.73;;;2.10;99.90;;;;;;5010677;28;20305;-68
2021/01/30 11:31:10;;;;;;;17.00;8.17;;;2.10;99.90;;;;;;5011092;28;20300;-69
2021/01/30 11:33:38;;;;;;;17.67;8.27;;;2.00;99.90;;;;;;5014536;28;20261;-69
2021/01/30 11:36:05;;;;;;;14.77;6.97;;;2.10;99.90;;;;;;5030925;28;20319;-68
2021/01/30 11:38:32;;;;;;;13.97;7.60;;;2.20;99.90;;;;;;5032546;28;20288;-69
2021/01/30 11:41:00;;;;;;;19.73;7.73;;;2.10;99.90;;;;;;5028700;28;20295;-68
2021/01/30 11:43:27;;;;;;;12.77;7.20;;;2.00;99.90;;;;;;5032695;28;20695;-72
2021/01/30 11:45:54;;;;;;;13.37;7.80;;;2.10;99.90;;;;;;5032803;28;20232;-72
2021/01/30 11:48:22;;;;;;;10.27;5.40;;;2.00;99.90;;;;;;5027658;28;20423;-73
2021/01/30 11:50:51;;;;;;;17.63;6.63;;;2.00;99.90;;;;;;5013194;28;20293;-75
2021/01/30 11:53:20;;;;;;;17.37;9.17;;;2.00;99.90;;;;;;5013344;28;20268;-71
2021/01/30 11:55:47;;;;;;;15.23;7.20;;;2.00;99.90;;;;;;5013358;28;20317;-70
2021/01/30 11:58:15;;;;;;;15.27;7.50;;;2.10;99.90;;;;;;5013018;28;20744;-72
2021/01/30 12:00:41;;;;;;;21.63;9.13;;;2.00;99.90;;;;;;5013312;28;20214;-71
2021/01/30 12:03:15;;;;;;;18.57;8.13;;;2.10;99.90;;;;;;5013352;28;20206;-70
2021/01/30 12:05:41;;;;;;;11.53;6.77;;;2.20;99.90;;;;;;5013402;28;20308;-72
2021/01/30 12:08:08;;;;;;;16.17;8.20;;;2.20;99.90;;;;;;5013488;28;20300;-71
2021/01/30 12:10:34;;;;;;;15.20;7.07;;;2.10;99.90;;;;;;5013218;28;20735;-72
2021/01/30 12:13:01;;;;;;;13.33;7.10;;;2.10;99.90;;;;;;5012967;28;20300;-71
2021/01/30 12:15:27;;;;;;;17.47;8.53;;;2.20;99.90;;;;;;5013383;28;20205;-72
2021/01/30 12:17:53;;;;;;;13.83;6.50;;;2.10;99.90;;;;;;5012991;28;20363;-71
2021/01/30 12:20:22;;;;;;;17.87;8.67;;;2.20;99.90;;;;;;5013188;28;20292;-71
2021/01/30 12:22:49;;;;;;;18.97;7.80;;;2.30;99.90;;;;;;5013262;28;20233;-72
2021/01/30 12:25:17;;;;;;;15.73;7.53;;;2.30;99.90;;;;;;5012860;28;20225;-71
2021/01/30 12:27:49;;;;;;;20.03;9.00;;;2.30;99.90;;;;;;5012770;28;20292;-71
2021/01/30 12:30:17;;;;;;;12.20;6.37;;;2.40;99.90;;;;;;5013857;28;20312;-73
2021/01/30 12:32:43;;;;;;;13.83;7.57;;;2.30;99.90;;;;;;5016545;28;20639;-72
2021/01/30 12:35:11;;;;;;;14.20;8.30;;;2.20;99.90;;;;;;5017103;28;20310;-72
2021/01/30 12:37:38;;;;;;;15.17;8.30;;;2.30;99.90;;;;;;5016780;28;20287;-71
2021/01/30 12:40:06;;;;;;;17.33;8.90;;;2.30;99.90;;;;;;5016645;28;20300;-71
2021/01/30 12:42:33;;;;;;;14.80;6.73;;;2.40;99.90;;;;;;5016841;28;20292;-71
2021/01/30 12:44:59;;;;;;;15.60;8.07;;;2.40;99.90;;;;;;5016671;28;20311;-70
2021/01/30 12:47:26;;;;;;;14.80;8.13;;;2.40;99.90;;;;;;5016851;28;20248;-71
2021/01/30 12:49:53;;;;;;;18.27;7.87;;;2.40;99.90;;;;;;5016837;28;20343;-71
2021/01/30 12:52:19;;;;;;;12.80;7.20;;;2.40;99.90;;;;;;5016547;28;20211;-71
2021/01/30 12:54:46;;;;;;;12.33;6.27;;;2.40;99.90;;;;;;5016241;28;20332;-71
2021/01/30 12:57:12;;;;;;;13.23;6.63;;;2.40;99.90;;;;;;5016133;28;20265;-71
2021/01/30 12:59:39;;;;;;;12.60;6.73;;;2.40;99.90;;;;;;5016408;28;20288;-72
2021/01/30 13:02:06;;;;;;;14.90;7.60;;;2.40;99.90;;;;;;5016624;28;20296;-71
2021/01/30 13:04:32;;;;;;;16.73;8.50;;;2.50;99.90;;;;;;5023426;28;20235;-72
2021/01/30 13:06:59;;;;;;;16.57;7.60;;;2.50;99.90;;;;;;5015436;28;20247;-71
2021/01/30 13:09:25;;;;;;;15.43;7.80;;;2.50;99.90;;;;;;5016264;28;20690;-72
2021/01/30 13:11:53;;;;;;;19.77;8.00;;;2.40;99.90;;;;;;5015964;28;20202;-72
2021/01/30 13:14:19;;;;;;;15.80;8.27;;;2.30;99.90;;;;;;5024629;28;20303;-72
2021/01/30 13:16:47;;;;;;;16.63;8.13;;;2.40;99.90;;;;;;5035956;28;20242;-71
2021/01/30 13:19:13;;;;;;;13.23;6.77;;;2.40;99.90;;;;;;5035861;28;20295;-72
2021/01/30 13:21:40;;;;;;;16.40;8.83;;;2.40;99.90;;;;;;5035715;28;20295;-68
2021/01/30 13:24:07;;;;;;;15.57;8.17;;;2.40;99.90;;;;;;5035425;28;20228;-74
2021/01/30 13:26:38;;;;;;;25.73;8.10;;;2.50;99.90;;;;;;5035710;28;20205;-70
2021/01/30 13:29:05;;;;;;;15.33;8.30;;;2.70;99.90;;;;;;5036255;28;20205;-67
2021/01/30 13:31:38;;;;;;;15.77;7.67;;;2.60;99.90;;;;;;5022825;28;20209;-65
2021/01/30 13:34:06;;;;;;;18.63;8.23;;;2.60;99.90;;;;;;5015502;28;20236;-66
2021/01/30 13:36:32;;;;;;;16.37;7.33;;;2.40;99.90;;;;;;5015800;28;20290;-71
2021/01/30 13:39:00;;;;;;;20.53;9.03;;;2.40;99.90;;;;;;5015848;28;20241;-70
2021/01/30 13:41:26;;;;;;;11.93;6.10;;;2.40;99.90;;;;;;5015533;28;20695;-69
2021/01/30 13:43:52;;;;;;;17.93;8.87;;;2.30;99.90;;;;;;5014761;28;20759;-69
2021/01/30 13:46:19;;;;;;;21.63;8.20;;;2.40;99.90;;;;;;5015954;28;20597;-70
2021/01/30 13:48:45;;;;;;;17.43;8.13;;;2.40;99.90;;;;;;5015547;28;20293;-75
2021/01/30 13:51:13;;;;;;;16.93;9.33;;;2.50;99.90;;;;;;5015432;28;20298;-75
2021/01/30 13:53:39;;;;;;;17.87;7.37;;;2.40;99.90;;;;;;5015687;28;20726;-74
2021/01/30 13:56:06;;;;;;;14.57;8.07;;;2.40;99.90;;;;;;5015414;28;20692;-74
2021/01/30 13:58:32;;;;;;;10.40;5.73;;;2.50;99.90;;;;;;5015435;28;20288;-74
2021/01/30 14:00:58;;;;;;;15.63;7.47;;;2.50;99.90;;;;;;5015526;28;20216;-74
2021/01/30 14:03:25;;;;;;;17.00;8.17;;;2.50;99.90;;;;;;5014888;28;20363;-72
2021/01/30 14:05:51;;;;;;;18.77;7.83;;;2.60;99.90;;;;;;5015584;28;20206;-74
2021/01/30 14:08:19;;;;;;;17.53;7.57;;;2.60;99.90;;;;;;5015396;28;20637;-75
2021/01/30 14:10:46;;;;;;;16.17;7.33;;;2.50;99.90;;;;;;5015356;28;20292;-74
2021/01/30 14:13:12;;;;;;;14.97;7.77;;;2.40;99.90;;;;;;5015070;28;20206;-74
2021/01/30 14:15:39;;;;;;;10.57;6.37;;;2.50;99.90;;;;;;5015020;28;20292;-72
2021/01/30 14:18:05;;;;;;;15.33;8.03;;;2.50;99.90;;;;;;5014862;28;20312;-74
2021/01/30 14:20:32;;;;;;;14.63;7.70;;;2.50;99.90;;;;;;5015609;28;20214;-74
2021/01/30 14:22:58;;;;;;;12.47;6.77;;;2.50;99.90;;;;;;5015428;28;20293;-73
2021/01/30 14:25:26;;;;;;;13.47;6.73;;;2.50;99.90;;;;;;5015056;28;20305;-74
2021/01/30 14:27:52;;;;;;;16.40;7.50;;;2.50;99.90;;;;;;5015054;28;20296;-74
2021/01/30 14:30:20;;;;;;;16.53;8.00;;;2.40;99.90;;;;;;5014694;28;20212;-73
2021/01/30 14:32:46;;;;;;;14.57;7.57;;;2.40;99.90;;;;;;5014541;28;20201;-74
2021/01/30 14:35:14;;;;;;;18.00;8.33;;;2.50;99.90;;;;;;5014570;28;20225;-73
2021/01/30 14:37:41;;;;;;;15.07;7.53;;;2.50;99.90;;;;;;5014792;28;20237;-74
2021/01/30 14:40:08;;;;;;;15.73;8.07;;;2.50;99.90;;;;;;5014686;28;20210;-74
2021/01/30 14:42:35;;;;;;;16.43;8.13;;;2.50;99.90;;;;;;5014734;28;20210;-75
2021/01/30 14:45:03;;;;;;;14.30;7.53;;;2.50;99.90;;;;;;5014395;28;20225;-74
2021/01/30 14:47:29;;;;;;;15.57;7.97;;;2.50;99.90;;;;;;5014434;28;20202;-74
2021/01/30 14:49:56;;;;;;;11.97;6.50;;;2.50;99.90;;;;;;5014578;28;20201;-74
2021/01/30 14:52:22;;;;;;;11.40;6.67;;;2.40;99.90;;;;;;5014525;28;20210;-76
2021/01/30 14:54:48;;;;;;;13.13;7.23;;;2.50;99.90;;;;;;5014428;28;20707;-74
2021/01/30 14:57:16;;;;;;;14.37;6.77;;;2.50;99.90;;;;;;5014431;28;20236;-75
2021/01/30 14:59:43;;;;;;;12.73;6.73;;;2.40;99.90;;;;;;5014067;28;20267;-74
2021/01/30 15:02:09;;;;;;;12.90;7.20;;;2.30;99.90;;;;;;5014335;28;20213;-74
2021/01/30 15:04:38;;;;;;;16.07;7.63;;;2.30;99.90;;;;;;5013774;28;20237;-74
2021/01/30 15:07:05;;;;;;;15.27;7.53;;;2.30;99.90;;;;;;5014304;28;20297;-74
2021/01/30 15:09:31;;;;;;;11.87;6.73;;;2.40;99.90;;;;;;5014192;28;20213;-74
2021/01/30 15:11:57;;;;;;;15.40;6.67;;;2.30;99.90;;;;;;5014122;28;20228;-74
2021/01/30 15:14:23;;;;;;;15.13;6.97;;;2.30;99.90;;;;;;5014292;28;20230;-74
2021/01/30 15:16:50;;;;;;;14.73;6.63;;;2.30;99.90;;;;;;5013852;28;20384;-75
2021/01/30 15:19:17;;;;;;;13.33;6.83;;;2.20;99.90;;;;;;5013855;28;20210;-74
2021/01/30 15:21:44;;;;;;;13.50;7.03;;;2.20;99.90;;;;;;5013797;28;20217;-75
2021/01/30 15:24:10;;;;;;;11.67;6.77;;;2.20;99.90;;;;;;5013706;28;20225;-75
2021/01/30 15:26:37;;;;;;;12.03;6.20;;;2.20;99.90;;;;;;5014041;28;20216;-75
2021/01/30 15:29:04;;;;;;;14.40;7.03;;;2.20;99.90;;;;;;5014008;28;20296;-74
2021/01/30 15:31:30;;;;;;;12.53;6.70;;;2.20;99.90;;;;;;5013603;28;20210;-75
2021/01/30 15:33:58;;;;;;;15.53;6.97;;;2.20;99.90;;;;;;5013582;28;20222;-74
2021/01/30 15:36:24;;;;;;;9.57;5.33;;;2.20;99.90;;;;;;5013524;28;20225;-76
2021/01/30 15:38:51;;;;;;;12.47;6.43;;;2.10;99.90;;;;;;5013697;28;20213;-75
2021/01/30 15:41:17;;;;;;;11.67;7.07;;;2.10;99.90;;;;;;5013527;28;20244;-72
2021/01/30 15:43:43;;;;;;;10.70;6.27;;;2.10;99.90;;;;;;5013444;28;20287;-80
2021/01/30 15:46:09;;;;;;;15.50;6.40;;;2.10;99.90;;;;;;5013763;28;20213;-76
2021/01/30 15:48:35;;;;;;;13.90;7.30;;;2.10;99.90;;;;;;5013508;28;20216;-83
2021/01/30 15:51:03;;;;;;;14.73;7.57;;;2.20;99.90;;;;;;5013734;28;20205;-73
2021/01/30 15:53:30;;;;;;;15.30;6.73;;;2.20;99.90;;;;;;5013504;28;20225;-74
2021/01/30 15:55:59;;;;;;;10.97;6.17;;;2.20;99.90;;;;;;5013046;28;20664;-74
2021/01/30 15:58:25;;;;;;;9.73;6.07;;;2.20;99.90;;;;;;5013834;28;20244;-76
2021/01/30 16:00:51;;;;;;;14.60;6.37;;;2.20;99.90;;;;;;5014786;28;20252;-79
2021/01/30 16:03:17;;;;;;;10.07;5.27;;;2.20;99.90;;;;;;5013142;28;20719;-72
2021/01/30 16:05:44;;;;;;;11.27;5.80;;;2.10;99.90;;;;;;5012799;28;20208;-74
2021/01/30 16:08:11;;;;;;;14.80;6.73;;;2.10;99.90;;;;;;5013091;28;20194;-75
2021/01/30 16:10:39;;;;;;;10.47;5.43;;;2.20;99.90;;;;;;5013074;28;20209;-75
2021/01/30 16:13:05;;;;;;;13.13;6.77;;;2.10;99.90;;;;;;5013685;28;20206;-74
2021/01/30 16:15:32;;;;;;;9.77;5.30;;;2.10;99.90;;;;;;5013100;28;20571;-75
2021/01/30 16:17:58;;;;;;;14.93;7.50;;;2.10;99.90;;;;;;5013031;28;20241;-74
2021/01/30 16:20:26;;;;;;;12.40;6.27;;;2.10;99.90;;;;;;5012914;28;20209;-74
2021/01/30 16:22:52;;;;;;;14.60;7.17;;;2.20;99.90;;;;;;5012988;28;20668;-73
2021/01/30 16:25:20;;;;;;;11.70;6.23;;;2.10;99.90;;;;;;5013154;28;20225;-75
2021/01/30 16:27:46;;;;;;;14.77;7.67;;;2.20;99.90;;;;;;5013056;28;20209;-74
2021/01/30 16:30:14;;;;;;;11.93;6.87;;;2.10;99.90;;;;;;5012991;28;20209;-74
2021/01/30 16:32:40;;;;;;;10.57;6.00;;;2.20;99.90;;;;;;5012916;28;20640;-74
2021/01/30 16:35:09;;;;;;;13.93;6.77;;;2.20;99.90;;;;;;5013020;28;20320;-75
2021/01/30 16:37:35;;;;;;;11.63;6.33;;;2.20;99.90;;;;;;5012746;28;20295;-74
2021/01/30 16:40:03;;;;;;;12.97;7.63;;;2.10;99.90;;;;;;5013013;28;20213;-67
2021/01/30 16:42:31;;;;;;;10.40;6.10;;;2.10;99.90;;;;;;5012938;28;20206;-67
2021/01/30 16:44:57;;;;;;;12.03;7.20;;;2.10;99.90;;;;;;5012831;28;20620;-68
2021/01/30 16:47:23;;;;;;;10.80;6.50;;;2.00;99.90;;;;;;5012994;28;20263;-74
2021/01/30 16:49:49;;;;;;;11.63;6.57;;;2.00;99.90;;;;;;5012643;28;20213;-73
2021/01/30 16:52:16;;;;;;;14.33;7.60;;;1.90;99.90;;;;;;5012850;28;20209;-70
2021/01/30 16:54:43;;;;;;;13.17;6.87;;;1.90;99.90;;;;;;5013050;28;20233;-73
2021/01/30 16:57:09;;;;;;;14.97;7.77;;;1.80;99.90;;;;;;5012805;28;20598;-75
2021/01/30 16:59:37;;;;;;;13.27;7.07;;;1.90;99.90;;;;;;5012831;28;20206;-70
2021/01/30 17:02:04;;;;;;;15.17;7.97;;;1.90;99.90;;;;;;5011236;28;20214;-72
2021/01/30 17:04:30;;;;;;;12.80;6.60;;;1.90;99.90;;;;;;5012254;28;20238;-72
2021/01/30 17:06:56;;;;;;;12.67;7.57;;;1.80;99.90;;;;;;5012546;28;20661;-74
2021/01/30 17:09:22;;;;;;;13.60;7.03;;;1.90;99.90;;;;;;5012507;28;20264;-81
2021/01/30 17:11:49;;;;;;;11.93;6.37;;;1.80;99.90;;;;;;5012702;28;20214;-74
2021/01/30 17:14:16;;;;;;;16.03;8.40;;;1.80;99.90;;;;;;5012742;28;20312;-74
2021/01/30 17:16:43;;;;;;;14.77;6.90;;;1.80;99.90;;;;;;5012014;28;20233;-77
2021/01/30 17:19:09;;;;;;;12.00;6.50;;;1.80;99.90;;;;;;5015332;28;20214;-75
2021/01/30 17:21:35;;;;;;;12.13;7.33;;;1.80;99.90;;;;;;5016805;28;20206;-68
2021/01/30 17:24:02;;;;;;;11.73;6.53;;;1.70;99.90;;;;;;5014033;28;20245;-70
2021/01/30 17:26:28;;;;;;;10.37;4.90;;;1.70;99.90;;;;;;5013859;28;20224;-70
2021/01/30 17:28:54;;;;;;;10.07;6.07;;;1.70;99.90;;;;;;5013696;28;20683;-72
2021/01/30 17:31:21;;;;;;;12.57;6.90;;;1.60;99.90;;;;;;5023708;28;20213;-70
2021/01/30 17:33:48;;;;;;;8.47;4.93;;;1.50;99.90;;;;;;5013946;28;20284;-70
2021/01/30 17:36:14;;;;;;;9.73;6.30;;;1.40;99.90;;;;;;5013019;28;20225;-75
2021/01/30 17:38:40;;;;;;;11.80;6.17;;;1.40;99.90;;;;;;5014028;28;20206;-68
2021/01/30 17:41:07;;;;;;;9.23;5.93;;;1.40;99.90;;;;;;5018090;28;20329;-68
2021/01/30 17:43:34;;;;;;;12.90;7.33;;;1.50;99.90;;;;;;5013258;28;20225;-70
2021/01/30 17:46:01;;;;;;;12.17;6.17;;;1.50;99.90;;;;;;5013977;28;20206;-68
2021/01/30 17:48:27;;;;;;;10.57;5.70;;;1.50;99.90;;;;;;5012920;28;20588;-68
2021/01/30 17:50:55;;;;;;;11.60;6.10;;;1.40;99.90;;;;;;5022610;28;20783;-70
2021/01/30 17:53:21;;;;;;;8.80;5.80;;;1.40;99.90;;;;;;5015351;28;20221;-70
2021/01/30 17:55:48;;;;;;;10.80;5.73;;;1.50;99.90;;;;;;5013491;28;20233;-70
2021/01/30 17:58:14;;;;;;;9.93;5.83;;;1.50;99.90;;;;;;5016747;28;20232;-77
2021/01/30 18:00:40;;;;;;;9.90;5.63;;;1.50;99.90;;;;;;5017274;28;20209;-73
2021/01/30 18:03:09;;;;;;;8.77;5.40;;;1.60;99.90;;;;;;5013393;28;20221;-72
2021/01/30 18:05:36;;;;;;;9.83;4.53;;;1.60;99.90;;;;;;5005086;28;20216;-74
2021/01/30 18:08:05;;;;;;;12.57;5.97;;;1.60;99.90;;;;;;5013994;28;20397;-67
2021/01/30 18:10:31;;;;;;;5.37;3.90;;;1.50;99.90;;;;;;5022212;28;20219;-66
2021/01/30 18:13:01;;;;;;;10.00;5.43;;;1.60;99.90;;;;;;5035118;28;20339;-66
2021/01/30 18:15:28;;;;;;;7.73;5.60;;;1.70;99.90;;;;;;5035014;28;20204;-67
2021/01/30 18:17:54;;;;;;;7.30;4.40;;;1.60;99.90;;;;;;5034601;28;20713;-65
2021/01/30 18:20:22;;;;;;;8.77;5.37;;;1.60;99.90;;;;;;5034816;28;20556;-70
2021/01/30 18:22:49;;;;;;;9.53;5.37;;;1.60;99.90;;;;;;5034755;28;20209;-68
2021/01/30 18:25:18;;;;;;;6.43;3.97;;;1.60;99.90;;;;;;5034455;28;20224;-66
2021/01/30 18:27:45;;;;;;;5.67;4.20;;;1.60;99.90;;;;;;5034517;28;20209;-67
2021/01/30 18:30:13;;;;;;;9.27;5.73;;;1.50;99.90;;;;;;5034224;28;20205;-67
2021/01/30 18:32:40;;;;;;;9.00;4.93;;;1.50;99.90;;;;;;5034809;28;20678;-66
2021/01/30 18:35:08;;;;;;;6.10;4.10;;;1.50;99.90;;;;;;5034578;28;20228;-67
2021/01/30 18:37:34;;;;;;;6.30;4.47;;;1.50;99.90;;;;;;5034182;28;20240;-67
2021/01/30 18:40:01;;;;;;;8.17;5.17;;;1.50;99.90;;;;;;5034185;28;20224;-67
2021/01/30 18:42:28;;;;;;;8.40;5.13;;;1.50;99.90;;;;;;5034311;28;20208;-67
2021/01/30 18:44:54;;;;;;;8.53;4.63;;;1.50;99.90;;;;;;5034640;28;20367;-67
2021/01/30 18:47:20;;;;;;;7.00;4.43;;;1.60;99.90;;;;;;5034554;28;20201;-67
2021/01/30 18:49:47;;;;;;;5.77;4.03;;;1.60;99.90;;;;;;5034357;28;20254;-67
2021/01/30 18:52:16;;;;;;;7.83;4.13;;;1.60;99.90;;;;;;5034246;28;20549;-67
2021/01/30 18:54:42;;;;;;;8.00;4.80;;;1.60;99.90;;;;;;5034063;28;20259;-68
2021/01/30 18:57:08;;;;;;;6.33;3.70;;;1.60;99.90;;;;;;5033905;28;20232;-67
2021/01/30 18:59:35;;;;;;;10.87;5.30;;;1.60;99.90;;;;;;5033905;28;20226;-67
2021/01/30 19:02:02;;;;;;;6.37;3.20;;;1.60;99.90;;;;;;5034187;28;20733;-67
2021/01/30 19:04:28;;;;;;;10.27;4.77;;;1.60;99.90;;;;;;5034092;28;20282;-67
2021/01/30 19:06:54;;;;;;;8.37;4.97;;;1.60;99.90;;;;;;5033922;28;20205;-66
2021/01/30 19:09:20;;;;;;;5.90;3.77;;;1.60;99.90;;;;;;5023000;28;20214;-67
2021/01/30 19:11:47;;;;;;;7.93;4.23;;;1.70;99.90;;;;;;5007845;28;20708;-67
2021/01/30 19:14:13;;;;;;;6.50;4.00;;;1.70;99.90;;;;;;5012359;28;20276;-66
2021/01/30 19:16:40;;;;;;;9.00;4.77;;;1.70;99.90;;;;;;5022772;28;20236;-67
2021/01/30 19:19:06;;;;;;;9.67;5.30;;;1.70;99.90;;;;;;5019151;28;20213;-67
2021/01/30 19:21:33;;;;;;;6.67;4.40;;;1.70;99.90;;;;;;5021203;28;20271;-67
2021/01/30 19:24:01;;;;;;;7.87;4.73;;;1.60;99.90;;;;;;5020973;28;20233;-67
2021/01/30 19:26:28;;;;;;;7.37;4.63;;;1.70;99.90;;;;;;5013670;28;20220;-67
2021/01/30 19:28:55;;;;;;;9.73;5.03;;;1.70;99.90;;;;;;5013729;28;20216;-67
2021/01/30 19:31:23;;;;;;;7.73;4.37;;;1.70;99.90;;;;;;5009510;28;20583;-66
2021/01/30 19:33:50;;;;;;;5.37;3.33;;;1.70;99.90;;;;;;5014485;28;20757;-67
2021/01/30 19:36:16;;;;;;;5.87;3.63;;;1.70;99.90;;;;;;5018700;28;20201;-67
2021/01/30 19:38:42;;;;;;;5.90;2.93;;;1.70;99.90;;;;;;5023649;28;20212;-67
2021/01/30 19:41:09;;;;;;;5.13;3.23;;;1.70;99.90;;;;;;5009109;28;20198;-67
2021/01/30 19:43:36;;;;;;;7.77;3.63;;;1.70;99.90;;;;;;5019048;28;20226;-66
2021/01/30 19:46:03;;;;;;;5.73;4.17;;;1.70;99.90;;;;;;5009740;28;20206;-67
2021/01/30 19:48:29;;;;;;;7.37;3.97;;;1.70;99.90;;;;;;5024367;28;20209;-67
2021/01/30 19:50:56;;;;;;;6.53;4.57;;;1.70;99.90;;;;;;5014377;28;20657;-67
2021/01/30 19:53:23;;;;;;;5.33;2.87;;;1.70;99.90;;;;;;5019541;28;20232;-67
2021/01/30 19:55:49;;;;;;;6.37;3.60;;;1.70;99.90;;;;;;5018441;28;20659;-67
2021/01/30 19:58:16;;;;;;;6.03;3.47;;;1.80;99.90;;;;;;5012132;28;20291;-67
2021/01/30 20:00:43;;;;;;;6.90;4.13;;;1.70;99.90;;;;;;5016339;28;20205;-67
2021/01/30 20:03:10;;;;;;;7.20;3.93;;;1.80;99.90;;;;;;5014903;28;20687;-67
2021/01/30 20:05:37;;;;;;;5.47;3.67;;;1.80;99.90;;;;;;5023933;28;20197;-67
2021/01/30 20:08:04;;;;;;;6.50;4.17;;;1.80;99.90;;;;;;5018924;28;20323;-67
2021/01/30 20:10:31;;;;;;;5.03;2.87;;;1.80;99.90;;;;;;5019493;28;20198;-67
2021/01/30 20:12:57;;;;;;;7.30;3.70;;;1.80;99.90;;;;;;5024416;28;20204;-67
2021/01/30 20:15:26;;;;;;;6.10;3.87;;;1.80;99.90;;;;;;5015308;28;20220;-67
2021/01/30 20:17:52;;;;;;;6.30;3.90;;;1.80;99.90;;;;;;5018398;28;20237;-67
2021/01/30 20:20:19;;;;;;;7.07;4.40;;;1.80;99.90;;;;;;5013874;28;20212;-67
2021/01/30 20:22:46;;;;;;;7.80;3.73;;;1.80;99.90;;;;;;5018802;28;20205;-67
2021/01/30 20:25:14;;;;;;;5.93;3.53;;;1.80;99.90;;;;;;5022606;28;20283;-67
2021/01/30 20:27:40;;;;;;;6.70;4.23;;;1.80;99.90;;;;;;5012403;28;20204;-67
2021/01/30 20:30:08;;;;;;;8.10;4.10;;;1.80;99.90;;;;;;5016456;28;20213;-67
2021/01/30 20:32:35;;;;;;;4.17;2.50;;;1.80;99.90;;;;;;5012840;28;20208;-68
2021/01/30 20:35:01;;;;;;;5.33;3.07;;;1.80;99.90;;;;;;5019575;28;20224;-67
2021/01/30 20:37:27;;;;;;;7.13;3.33;;;1.70;99.90;;;;;;5013853;28;20263;-67
2021/01/30 20:39:53;;;;;;;8.23;3.67;;;1.70;99.90;;;;;;5020722;28;20202;-67
2021/01/30 20:42:21;;;;;;;6.83;3.93;;;1.80;99.90;;;;;;5010622;28;20209;-68
2021/01/30 20:44:47;;;;;;;5.57;3.07;;;1.70;99.90;;;;;;5011317;28;20220;-67
2021/01/30 20:47:14;;;;;;;6.63;3.73;;;1.80;99.90;;;;;;5017722;28;20212;-67
2021/01/30 20:49:41;;;;;;;6.33;2.60;;;1.80;99.90;;;;;;5017489;28;20204;-67
2021/01/30 20:52:07;;;;;;;4.50;2.97;;;1.70;99.90;;;;;;5016273;28;20205;-67
2021/01/30 20:54:34;;;;;;;5.30;3.33;;;1.80;99.90;;;;;;5024689;28;20228;-67
2021/01/30 20:57:00;;;;;;;6.43;3.37;;;1.80;99.90;;;;;;5020080;28;20225;-67
2021/01/30 20:59:27;;;;;;;5.67;3.77;;;1.90;99.90;;;;;;5013950;28;20209;-68
2021/01/30 21:01:53;;;;;;;4.70;2.77;;;1.80;99.90;;;;;;5014143;28;20711;-67
2021/01/30 21:04:19;;;;;;;7.93;4.13;;;1.80;99.90;;;;;;5019670;28;20236;-67
2021/01/30 21:06:46;;;;;;;5.93;3.67;;;1.90;99.90;;;;;;5019100;28;20242;-67
2021/01/30 21:09:12;;;;;;;5.93;2.63;;;1.90;99.90;;;;;;5030236;28;20217;-67
2021/01/30 21:11:38;;;;;;;5.90;3.40;;;1.80;99.90;;;;;;5016974;28;20673;-67
2021/01/30 21:14:07;;;;;;;7.37;3.40;;;1.90;99.90;;;;;;5023147;28;20229;-68
2021/01/30 21:16:34;;;;;;;4.50;3.00;;;1.80;99.90;;;;;;5014528;28;20740;-67
2021/01/30 21:19:00;;;;;;;7.50;3.53;;;1.80;99.90;;;;;;5018105;28;20679;-67
2021/01/30 21:21:27;;;;;;;4.07;2.10;;;1.80;99.90;;;;;;5020617;28;20205;-67
2021/01/30 21:23:54;;;;;;;7.27;3.50;;;1.90;99.90;;;;;;5019296;28;20635;-67
2021/01/30 21:26:22;;;;;;;6.50;2.90;;;1.90;99.90;;;;;;5019252;28;20201;-67
2021/01/30 21:28:48;;;;;;;4.83;3.27;;;1.90;99.90;;;;;;5016052;28;20198;-68
2021/01/30 21:31:17;;;;;;;4.23;2.47;;;2.00;99.90;;;;;;5016636;28;20202;-67
2021/01/30 21:33:44;;;;;;;4.90;3.37;;;2.00;99.90;;;;;;5014460;28;20635;-67
2021/01/30 21:36:10;;;;;;;5.57;3.27;;;2.00;99.90;;;;;;5021066;28;20251;-67
2021/01/30 21:38:36;;;;;;;4.70;2.73;;;1.90;99.90;;;;;;5023084;28;20232;-68
2021/01/30 21:41:03;;;;;;;5.57;2.77;;;1.90;99.90;;;;;;5021269;28;20723;-67
2021/01/30 21:43:29;;;;;;;5.73;3.27;;;1.90;99.90;;;;;;5011026;28;20248;-67
2021/01/30 21:45:55;;;;;;;5.10;3.17;;;2.00;99.90;;;;;;5022042;28;20285;-67
2021/01/30 21:48:22;;;;;;;6.07;3.20;;;1.90;99.90;;;;;;5014662;28;20213;-67
2021/01/30 21:50:49;;;;;;;3.13;1.40;;;1.90;99.90;;;;;;5019057;28;20611;-67
2021/01/30 21:53:15;;;;;;;4.77;2.90;;;1.90;99.90;;;;;;5014245;28;20587;-67
2021/01/30 21:55:43;;;;;;;5.30;2.90;;;1.90;99.90;;;;;;5009228;28;20560;-67
2021/01/30 21:58:09;;;;;;;3.33;2.50;;;1.90;99.90;;;;;;5016871;28;20240;-67
2021/01/30 22:00:35;;;;;;;6.93;2.87;;;1.90;99.90;;;;;;5020078;28;20611;-67
2021/01/30 22:03:02;;;;;;;7.17;3.50;;;1.90;99.90;;;;;;5017265;28;20225;-67
2021/01/30 22:05:28;;;;;;;3.70;2.37;;;1.90;99.90;;;;;;5018589;28;20206;-67
2021/01/30 22:07:55;;;;;;;3.83;2.43;;;1.80;99.90;;;;;;5019898;28;20201;-67
2021/01/30 22:10:21;;;;;;;4.27;2.10;;;1.80;99.90;;;;;;5020469;28;20599;-67
2021/01/30 22:12:47;;;;;;;5.07;2.80;;;1.90;99.90;;;;;;5016486;28;20256;-67
2021/01/30 22:15:14;;;;;;;4.07;2.87;;;1.90;99.90;;;;;;5019447;28;20711;-67
2021/01/30 22:17:41;;;;;;;4.40;3.00;;;2.00;99.90;;;;;;5013798;28;20309;-67
2021/01/30 22:20:08;;;;;;;6.43;3.20;;;2.00;99.90;;;;;;5020641;28;20231;-67
2021/01/30 22:22:35;;;;;;;5.30;3.07;;;2.00;99.90;;;;;;5022030;28;20213;-67
2021/01/30 22:25:02;;;;;;;4.90;2.87;;;2.00;99.90;;;;;;5010054;28;20300;-67
2021/01/30 22:27:28;;;;;;;5.10;3.20;;;2.00;99.90;;;;;;5013748;28;20726;-67
2021/01/30 22:29:54;;;;;;;6.90;2.57;;;1.90;99.90;;;;;;5016247;28;20210;-67
2021/01/30 22:32:20;;;;;;;4.20;2.90;;;1.90;99.90;;;;;;5013753;28;20206;-67
2021/01/30 22:34:46;;;;;;;5.53;2.30;;;2.00;99.90;;;;;;5027806;28;20229;-67
2021/01/30 22:37:13;;;;;;;4.27;2.73;;;1.90;99.90;;;;;;5014782;28;20261;-67
2021/01/30 22:39:39;;;;;;;5.10;3.53;;;1.90;99.90;;;;;;5014618;28;20205;-67
2021/01/30 22:42:06;;;;;;;6.30;3.50;;;1.90;99.90;;;;;;5031830;28;20212;-67
